createdAt,value
2019-06-20T00:02:08.393Z,22.70
2019-06-20T00:04:37.219Z,21.75
2019-06-20T00:07:06.093Z,21.60
2019-06-20T00:09:34.929Z,17.57
2019-06-20T00:12:03.773Z,17.23
2019-06-20T00:14:32.610Z,21.65
2019-06-20T00:17:01.560Z,22.95
2019-06-20T00:19:30.419Z,21.33
2019-06-20T00:21:59.181Z,16.30
2019-06-20T00:24:27.898Z,20.95
2019-06-20T00:26:56.784Z,22.80
2019-06-20T00:29:25.592Z,23.12
2019-06-20T00:31:54.411Z,30.90
2019-06-20T00:34:23.205Z,23.38
2019-06-20T00:36:51.969Z,13.95
2019-06-20T00:39:20.784Z,10.15
2019-06-20T00:41:49.641Z,11.18
2019-06-20T00:44:18.480Z,13.70
2019-06-20T00:46:47.161Z,16.82
2019-06-20T00:49:15.908Z,17.75
2019-06-20T00:51:44.725Z,15.70
2019-06-20T00:54:13.398Z,19.90
2019-06-20T00:56:42.170Z,18.95
2019-06-20T00:59:10.933Z,11.22
2019-06-20T01:01:39.781Z,14.47
2019-06-20T01:04:08.826Z,21.70
2019-06-20T01:06:37.582Z,12.73
2019-06-20T01:09:08.708Z,19.45
2019-06-20T01:11:37.564Z,20.90
2019-06-20T01:14:06.609Z,13.43
2019-06-20T01:16:35.429Z,12.60
2019-06-20T01:19:04.372Z,17.75
2019-06-20T01:21:33.122Z,20.15
2019-06-20T01:24:01.950Z,15.35
2019-06-20T01:26:30.689Z,8.70
2019-06-20T01:28:59.530Z,11.95
2019-06-20T01:31:28.364Z,11.43
2019-06-20T01:33:57.257Z,11.48
2019-06-20T01:36:26.055Z,8.90
2019-06-20T01:38:54.884Z,14.85
2019-06-20T01:41:24.031Z,19.70
2019-06-20T01:43:52.795Z,16.85
2019-06-20T01:46:21.577Z,13.80
2019-06-20T01:48:50.317Z,11.10
2019-06-20T01:51:19.158Z,12.80
2019-06-20T01:53:47.834Z,12.13
2019-06-20T01:56:16.605Z,15.50
2019-06-20T01:58:45.311Z,15.30
2019-06-20T02:01:14.174Z,13.75
2019-06-20T02:03:43.057Z,12.58
2019-06-20T02:06:11.885Z,12.28
2019-06-20T02:08:42.958Z,11.75
2019-06-20T02:11:12.878Z,11.70
2019-06-20T02:13:41.739Z,14.23
2019-06-20T02:16:10.554Z,13.22
2019-06-20T02:18:39.313Z,13.22
2019-06-20T02:21:08.334Z,11.20
2019-06-20T02:23:37.162Z,12.55
2019-06-20T02:26:05.999Z,12.60
2019-06-20T02:28:34.840Z,17.50
2019-06-20T02:31:03.646Z,13.72
2019-06-20T02:33:32.470Z,12.95
2019-06-20T02:36:01.297Z,8.60
2019-06-20T02:38:30.179Z,11.60
2019-06-20T02:40:58.995Z,18.73
2019-06-20T02:43:27.962Z,11.43
2019-06-20T02:45:56.802Z,13.45
2019-06-20T02:48:25.631Z,11.93
2019-06-20T02:50:54.484Z,11.35
2019-06-20T02:53:23.317Z,14.95
2019-06-20T02:55:52.128Z,12.13
2019-06-20T02:58:20.991Z,9.88
2019-06-20T03:00:59.729Z,11.68
2019-06-20T03:03:29.557Z,11.70
2019-06-20T03:05:58.675Z,14.00
2019-06-20T03:08:27.494Z,10.45
2019-06-20T03:10:56.323Z,13.20
2019-06-20T03:13:25.155Z,13.93
2019-06-20T03:15:53.988Z,13.75
2019-06-20T03:18:22.800Z,11.78
2019-06-20T03:20:51.574Z,14.15
2019-06-20T03:23:20.411Z,15.53
2019-06-20T03:25:49.428Z,15.75
2019-06-20T03:28:18.237Z,10.15
2019-06-20T03:30:47.091Z,12.88
2019-06-20T03:33:15.913Z,13.72
2019-06-20T03:35:44.721Z,16.87
2019-06-20T03:38:13.494Z,18.55
2019-06-20T03:40:42.448Z,13.43
2019-06-20T03:43:11.190Z,11.38
2019-06-20T03:45:40.034Z,13.88
2019-06-20T03:48:08.855Z,9.35
2019-06-20T03:50:37.758Z,17.85
2019-06-20T03:53:06.611Z,8.93
2019-06-20T03:55:35.539Z,10.80
2019-06-20T03:58:04.594Z,20.80
2019-06-20T04:00:34.978Z,11.68
2019-06-20T04:03:04.825Z,15.68
2019-06-20T04:05:33.940Z,9.88
2019-06-20T04:08:02.803Z,18.25
2019-06-20T04:10:31.623Z,13.20
2019-06-20T04:13:00.456Z,21.95
2019-06-20T04:15:29.231Z,12.88
2019-06-20T04:17:57.988Z,13.38
2019-06-20T04:20:26.811Z,19.17
2019-06-20T04:22:55.599Z,23.80
2019-06-20T04:25:24.425Z,24.43
2019-06-20T04:27:53.187Z,21.95
2019-06-20T04:30:22.028Z,20.25
2019-06-20T04:32:50.876Z,18.73
2019-06-20T04:35:19.732Z,21.75
2019-06-20T04:37:48.474Z,28.45
2019-06-20T04:40:17.697Z,31.07
2019-06-20T04:42:46.452Z,25.35
2019-06-20T04:45:17.231Z,28.47
2019-06-20T04:47:45.927Z,27.70
2019-06-20T04:50:14.806Z,32.38
2019-06-20T04:52:43.533Z,29.60
2019-06-20T04:55:12.369Z,30.12
2019-06-20T04:57:41.138Z,29.70
2019-06-20T05:00:10.119Z,27.80
2019-06-20T05:02:38.877Z,26.97
2019-06-20T05:05:08.413Z,31.93
2019-06-20T05:07:37.254Z,23.80
2019-06-20T05:10:07.577Z,31.15
2019-06-20T05:12:36.473Z,25.77
2019-06-20T05:15:08.620Z,22.22
2019-06-20T05:17:37.385Z,21.20
2019-06-20T05:20:07.150Z,24.27
2019-06-20T05:22:36.009Z,26.60
2019-06-20T05:25:05.795Z,23.62
2019-06-20T05:27:34.644Z,18.17
2019-06-20T05:30:05.050Z,15.88
2019-06-20T05:32:33.817Z,20.43
2019-06-20T05:35:03.190Z,17.57
2019-06-20T05:37:32.139Z,15.20
2019-06-20T05:40:00.900Z,19.57
2019-06-20T05:42:29.922Z,16.45
2019-06-20T05:44:58.677Z,18.48
2019-06-20T05:47:27.543Z,21.60
2019-06-20T05:49:56.281Z,14.13
2019-06-20T05:52:25.090Z,20.52
2019-06-20T05:54:53.935Z,14.25
2019-06-20T05:57:22.731Z,19.00
2019-06-20T05:59:51.587Z,12.80
2019-06-20T06:02:20.598Z,11.70
2019-06-20T06:04:49.450Z,14.38
2019-06-20T06:07:18.277Z,10.82
2019-06-20T06:09:51.532Z,11.97
2019-06-20T06:12:20.410Z,13.62
2019-06-20T06:14:49.183Z,11.48
2019-06-20T06:17:17.923Z,10.53
2019-06-20T06:19:47.103Z,16.48
2019-06-20T06:22:15.977Z,15.13
2019-06-20T06:24:44.947Z,23.73
2019-06-20T06:27:13.697Z,19.95
2019-06-20T06:29:42.544Z,22.17
2019-06-20T06:32:11.420Z,15.68
2019-06-20T06:34:40.160Z,16.45
2019-06-20T06:37:08.925Z,16.65
2019-06-20T06:39:37.736Z,11.53
2019-06-20T06:42:06.591Z,18.65
2019-06-20T06:44:35.346Z,20.30
2019-06-20T06:47:04.401Z,11.68
2019-06-20T06:49:33.285Z,20.35
2019-06-20T06:52:01.988Z,21.37
2019-06-20T06:54:30.673Z,13.58
2019-06-20T06:56:59.605Z,19.00
2019-06-20T06:59:28.344Z,20.08
2019-06-20T07:01:57.096Z,12.33
2019-06-20T07:04:27.623Z,15.05
2019-06-20T07:06:56.458Z,15.45
2019-06-20T07:09:25.367Z,21.50
2019-06-20T07:11:54.220Z,21.05
2019-06-20T07:14:23.053Z,16.17
2019-06-20T07:17:00.385Z,19.17
2019-06-20T07:19:23.350Z,17.35
2019-06-20T07:21:52.099Z,12.80
2019-06-20T07:24:20.917Z,14.80
2019-06-20T07:26:49.611Z,22.17
2019-06-20T07:29:18.413Z,14.45
2019-06-20T07:31:47.171Z,10.28
2019-06-20T07:34:16.034Z,16.60
2019-06-20T07:36:44.825Z,18.65
2019-06-20T07:39:13.643Z,22.42
2019-06-20T07:41:43.889Z,13.38
2019-06-20T07:44:12.769Z,19.55
2019-06-20T07:46:41.611Z,17.73
2019-06-20T07:49:10.510Z,17.65
2019-06-20T07:51:39.251Z,14.78
2019-06-20T07:54:08.150Z,20.62
2019-06-20T07:56:36.982Z,14.78
2019-06-20T07:59:05.802Z,15.72
2019-06-20T08:01:34.642Z,16.73
2019-06-20T08:04:03.416Z,16.12
2019-06-20T08:06:32.168Z,12.75
2019-06-20T08:09:01.033Z,21.37
2019-06-20T08:11:29.887Z,17.17
2019-06-20T08:13:58.556Z,26.33
2019-06-20T08:16:27.362Z,17.57
2019-06-20T08:18:56.016Z,18.67
2019-06-20T08:21:24.956Z,17.80
2019-06-20T08:23:53.834Z,21.45
2019-06-20T08:26:22.811Z,18.87
2019-06-20T08:29:07.358Z,23.38
2019-06-20T08:31:22.173Z,21.48
2019-06-20T08:33:51.077Z,22.75
2019-06-20T08:36:19.952Z,20.43
2019-06-20T08:38:48.868Z,18.92
2019-06-20T08:41:17.913Z,15.70
2019-06-20T08:43:46.726Z,15.05
2019-06-20T08:46:15.464Z,11.95
2019-06-20T08:48:44.302Z,17.48
2019-06-20T08:51:14.728Z,19.40
2019-06-20T08:53:43.705Z,18.60
2019-06-20T08:56:13.522Z,21.23
2019-06-20T08:58:42.452Z,20.50
2019-06-20T09:01:11.286Z,11.30
2019-06-20T09:03:40.122Z,20.48
2019-06-20T09:06:09.049Z,19.12
2019-06-20T09:08:37.884Z,19.50
2019-06-20T09:11:06.718Z,19.32
2019-06-20T09:13:35.617Z,19.17
2019-06-20T09:16:04.561Z,19.65
2019-06-20T09:18:33.450Z,14.93
2019-06-20T09:21:02.243Z,14.68
2019-06-20T09:23:31.130Z,17.23
2019-06-20T09:25:59.943Z,13.98
2019-06-20T09:28:28.810Z,13.90
2019-06-20T09:30:59.014Z,12.98
2019-06-20T09:33:28.179Z,17.73
2019-06-20T09:35:57.486Z,16.32
2019-06-20T09:38:26.442Z,11.65
2019-06-20T09:40:55.318Z,12.78
2019-06-20T09:43:27.546Z,16.77
2019-06-20T09:45:54.602Z,11.88
2019-06-20T09:48:23.753Z,7.80
2019-06-20T09:50:53.026Z,12.07
2019-06-20T09:53:23.274Z,11.88
2019-06-20T09:55:53.631Z,11.63
2019-06-20T09:58:22.792Z,9.20
2019-06-20T10:00:52.778Z,8.05
2019-06-20T10:03:21.789Z,8.85
2019-06-20T10:05:50.763Z,7.45
2019-06-20T10:08:19.612Z,8.98
2019-06-20T10:10:49.307Z,5.45
2019-06-20T10:13:18.912Z,9.58
2019-06-20T10:16:23.776Z,10.72
2019-06-20T10:18:52.598Z,6.80
2019-06-20T10:21:21.517Z,9.88
2019-06-20T10:23:51.851Z,9.43
2019-06-20T10:26:20.885Z,7.17
2019-06-20T10:28:51.319Z,9.10
2019-06-20T10:31:20.046Z,5.25
2019-06-20T10:33:48.814Z,7.95
2019-06-20T10:36:17.679Z,7.78
2019-06-20T10:38:47.954Z,8.30
2019-06-20T10:41:16.936Z,12.18
2019-06-20T10:43:45.850Z,8.20
2019-06-20T10:46:14.715Z,7.58
2019-06-20T10:48:44.374Z,6.47
2019-06-20T10:51:33.272Z,5.85
2019-06-20T10:54:02.122Z,9.78
2019-06-20T10:56:31.122Z,7.30
2019-06-20T10:58:59.977Z,7.95
2019-06-20T11:01:28.902Z,6.45
2019-06-20T11:03:57.820Z,15.83
2019-06-20T11:06:26.654Z,6.35
2019-06-20T11:08:55.484Z,7.65
2019-06-20T11:11:24.256Z,8.30
2019-06-20T11:13:53.142Z,14.98
2019-06-20T11:16:22.143Z,10.08
2019-06-20T11:18:50.987Z,8.95
2019-06-20T11:21:19.808Z,17.42
2019-06-20T11:23:48.727Z,14.28
2019-06-20T11:26:17.563Z,14.47
2019-06-20T11:28:46.507Z,8.35
2019-06-20T11:31:15.524Z,8.63
2019-06-20T11:33:44.385Z,6.22
2019-06-20T11:36:13.218Z,10.80
2019-06-20T11:38:42.553Z,9.00
2019-06-20T11:41:11.477Z,10.48
2019-06-20T11:43:40.317Z,21.60
2019-06-20T11:46:09.275Z,19.75
2019-06-20T11:48:38.477Z,15.72
2019-06-20T11:51:07.447Z,12.33
2019-06-20T11:53:36.549Z,12.58
2019-06-20T11:56:05.547Z,13.05
2019-06-20T11:58:37.369Z,11.53
2019-06-20T12:01:06.301Z,21.93
2019-06-20T12:03:39.029Z,27.40
2019-06-20T12:06:05.848Z,27.80
2019-06-20T12:08:34.609Z,29.42
2019-06-20T12:11:03.480Z,12.25
2019-06-20T12:13:32.583Z,22.52
2019-06-20T12:16:01.446Z,20.95
2019-06-20T12:18:30.358Z,25.10
2019-06-20T12:20:59.722Z,17.45
2019-06-20T12:23:28.540Z,22.70
2019-06-20T12:25:57.455Z,17.27
2019-06-20T12:28:26.300Z,27.52
2019-06-20T12:30:55.169Z,15.85
2019-06-20T12:33:23.927Z,12.88
2019-06-20T12:35:52.772Z,20.37
2019-06-20T12:38:21.599Z,16.93
2019-06-20T12:40:50.470Z,18.82
2019-06-20T12:43:19.322Z,24.85
2019-06-20T12:45:49.316Z,21.60
2019-06-20T12:48:18.459Z,25.17
2019-06-20T12:50:47.722Z,17.87
2019-06-20T12:53:16.736Z,24.63
2019-06-20T12:55:45.793Z,19.35
2019-06-20T12:58:14.833Z,14.70
2019-06-20T13:00:44.919Z,16.60
2019-06-20T13:03:14.293Z,17.42
2019-06-20T13:05:43.296Z,17.57
2019-06-20T13:08:13.615Z,22.05
2019-06-20T13:10:43.933Z,20.95
2019-06-20T13:13:12.954Z,20.37
2019-06-20T13:15:42.506Z,14.43
2019-06-20T13:18:11.504Z,15.23
2019-06-20T13:20:40.669Z,13.32
2019-06-20T13:23:10.762Z,12.80
2019-06-20T13:25:40.949Z,8.00
2019-06-20T13:28:10.101Z,12.18
2019-06-20T13:30:40.276Z,12.60
2019-06-20T13:33:09.466Z,6.50
2019-06-20T13:35:39.959Z,5.22
2019-06-20T13:38:08.971Z,8.63
2019-06-20T13:40:39.532Z,8.00
2019-06-20T13:43:08.258Z,12.10
2019-06-20T13:45:40.500Z,9.38
2019-06-20T13:48:08.525Z,8.68
2019-06-20T13:50:40.090Z,6.42
2019-06-20T13:53:09.432Z,12.85
2019-06-20T13:55:40.666Z,9.03
2019-06-20T13:58:10.109Z,14.23
2019-06-20T14:00:42.906Z,8.48
2019-06-20T14:03:09.650Z,11.35
2019-06-20T14:05:39.663Z,10.23
2019-06-20T14:08:09.016Z,11.18
2019-06-20T14:10:37.853Z,14.30
2019-06-20T14:13:18.616Z,14.30
2019-06-20T14:15:37.333Z,10.13
2019-06-20T14:18:06.155Z,9.03
2019-06-20T14:20:35.002Z,14.85
2019-06-20T14:23:03.845Z,10.68
2019-06-20T14:25:34.261Z,8.53
2019-06-20T14:28:03.398Z,11.65
2019-06-20T14:30:32.465Z,11.48
2019-06-20T14:33:01.306Z,10.95
2019-06-20T14:35:30.215Z,9.73
2019-06-20T14:37:59.636Z,9.40
2019-06-20T14:40:28.475Z,10.70
2019-06-20T14:42:57.362Z,10.70
2019-06-20T14:45:26.198Z,12.23
2019-06-20T14:47:55.278Z,7.05
2019-06-20T14:50:24.277Z,11.25
2019-06-20T14:52:54.114Z,7.10
2019-06-20T14:55:23.420Z,12.53
2019-06-20T14:57:52.623Z,8.83
2019-06-20T15:00:21.911Z,6.03
2019-06-20T15:02:54.621Z,9.33
2019-06-20T15:05:21.281Z,11.53
2019-06-20T15:07:52.110Z,13.08
2019-06-20T15:10:20.894Z,8.88
2019-06-20T15:12:51.640Z,6.10
2019-06-20T15:15:20.315Z,6.08
2019-06-20T15:17:51.419Z,9.80
2019-06-20T15:20:19.889Z,6.72
2019-06-20T15:22:49.243Z,11.78
2019-06-20T15:25:19.112Z,7.85
2019-06-20T15:27:49.757Z,12.25
2019-06-20T15:30:18.570Z,9.90
2019-06-20T15:33:01.076Z,7.35
2019-06-20T15:35:18.007Z,11.18
2019-06-20T15:37:48.465Z,10.82
2019-06-20T15:40:18.086Z,11.45
2019-06-20T15:42:47.108Z,6.47
2019-06-20T15:45:17.729Z,4.30
2019-06-20T15:47:46.494Z,10.40
2019-06-20T15:50:15.417Z,4.08
2019-06-20T15:52:44.278Z,4.92
2019-06-20T15:55:13.229Z,7.67
2019-06-20T15:57:42.022Z,4.20
2019-06-20T16:00:12.953Z,5.75
2019-06-20T16:02:41.724Z,11.65
2019-06-20T16:05:11.649Z,9.48
2019-06-20T16:07:40.472Z,7.92
2019-06-20T16:10:10.222Z,8.25
2019-06-20T16:12:39.063Z,11.35
2019-06-20T16:15:09.933Z,9.98
2019-06-20T16:17:38.780Z,8.35
2019-06-20T16:20:09.020Z,6.30
2019-06-20T16:22:37.890Z,7.50
2019-06-20T16:25:07.027Z,6.90
2019-06-20T16:27:35.954Z,4.72
2019-06-20T16:30:07.261Z,8.85
2019-06-20T16:32:35.948Z,10.60
2019-06-20T16:35:09.138Z,5.83
2019-06-20T16:37:37.977Z,11.17
2019-06-20T16:40:11.812Z,4.10
2019-06-20T16:42:40.671Z,7.10
2019-06-20T16:45:10.337Z,5.62
2019-06-20T16:47:39.779Z,7.97
2019-06-20T16:50:10.473Z,5.58
2019-06-20T16:52:39.415Z,4.20
2019-06-20T16:55:10.126Z,9.68
2019-06-20T16:57:38.988Z,5.12
2019-06-20T17:00:09.014Z,4.08
2019-06-20T17:02:37.858Z,10.75
2019-06-20T17:05:08.321Z,2.65
2019-06-20T17:07:37.151Z,7.85
2019-06-20T17:10:07.645Z,5.70
2019-06-20T17:12:36.654Z,11.60
2019-06-20T17:15:06.787Z,4.92
2019-06-20T17:17:35.616Z,2.77
2019-06-20T17:20:07.586Z,3.92
2019-06-20T17:22:36.495Z,11.10
2019-06-20T17:25:09.229Z,6.67
2019-06-20T17:27:38.145Z,2.12
2019-06-20T17:30:11.769Z,5.85
2019-06-20T17:32:40.700Z,4.50
2019-06-20T17:35:09.717Z,1.45
2019-06-20T17:37:38.678Z,4.72
2019-06-20T17:40:11.927Z,3.40
2019-06-20T17:42:40.754Z,4.73
2019-06-20T17:45:10.685Z,4.20
2019-06-20T17:47:39.493Z,5.55
2019-06-20T17:50:14.205Z,4.40
2019-06-20T17:52:43.104Z,4.10
2019-06-20T17:55:12.109Z,5.65
2019-06-20T17:57:41.022Z,3.42
2019-06-20T18:00:11.875Z,10.58
2019-06-20T18:02:40.709Z,8.05
2019-06-20T18:05:10.305Z,8.25
2019-06-20T18:07:39.145Z,7.25
2019-06-20T18:10:08.547Z,2.77
2019-06-20T18:12:37.415Z,5.72
2019-06-20T18:15:07.355Z,3.85
2019-06-20T18:17:36.160Z,8.93
2019-06-20T18:20:08.886Z,4.83
2019-06-20T18:22:37.628Z,6.92
2019-06-20T18:25:09.235Z,6.55
2019-06-20T18:27:38.308Z,2.62
2019-06-20T18:30:08.530Z,2.42
2019-06-20T18:32:37.426Z,6.62
2019-06-20T18:35:08.346Z,7.80
2019-06-20T18:37:37.241Z,8.23
2019-06-20T18:40:10.737Z,7.12
2019-06-20T18:42:39.762Z,3.30
2019-06-20T18:45:09.174Z,6.47
2019-06-20T18:47:38.169Z,2.70
2019-06-20T18:50:09.063Z,9.23
2019-06-20T18:52:51.074Z,6.10
2019-06-20T18:55:08.897Z,13.00
2019-06-20T18:57:37.731Z,10.10
2019-06-20T19:00:11.794Z,8.63
2019-06-20T19:02:40.632Z,4.80
2019-06-20T19:05:11.224Z,5.65
2019-06-20T19:07:40.043Z,7.75
2019-06-20T19:10:10.501Z,3.65
2019-06-20T19:12:39.456Z,6.87
2019-06-20T19:15:11.633Z,10.50
2019-06-20T19:17:40.481Z,6.58
2019-06-20T19:20:09.725Z,4.75
2019-06-20T19:22:38.585Z,4.45
2019-06-20T19:25:08.218Z,6.75
2019-06-20T19:27:46.170Z,6.40
2019-06-20T19:30:08.950Z,12.88
2019-06-20T19:32:37.766Z,8.15
2019-06-20T19:35:10.040Z,10.28
2019-06-20T19:37:37.600Z,10.20
2019-06-20T19:40:09.587Z,9.15
2019-06-20T19:42:38.705Z,19.57
2019-06-20T19:45:11.608Z,4.60
2019-06-20T19:47:40.835Z,11.28
2019-06-20T19:50:10.256Z,6.03
2019-06-20T19:52:39.174Z,9.08
2019-06-20T19:55:08.379Z,5.35
2019-06-20T19:57:37.203Z,10.00
2019-06-20T20:00:07.807Z,7.53
2019-06-20T20:02:36.646Z,8.90
2019-06-20T20:05:19.253Z,16.80
2019-06-20T20:07:40.567Z,9.98
2019-06-20T20:10:10.289Z,6.78
2019-06-20T20:12:39.035Z,15.23
2019-06-20T20:15:09.653Z,9.30
2019-06-20T20:17:38.533Z,12.60
2019-06-20T20:20:08.045Z,6.85
2019-06-20T20:22:36.871Z,12.93
2019-06-20T20:25:07.569Z,7.55
2019-06-20T20:27:36.296Z,5.28
2019-06-20T20:30:09.995Z,3.95
2019-06-20T20:32:38.737Z,6.00
2019-06-20T20:35:07.868Z,10.85
2019-06-20T20:37:36.776Z,9.18
2019-06-20T20:40:07.677Z,4.35
2019-06-20T20:42:36.571Z,7.70
2019-06-20T20:45:09.638Z,7.83
2019-06-20T20:47:38.443Z,9.10
2019-06-20T20:50:09.441Z,8.63
2019-06-20T20:52:38.252Z,7.03
2019-06-20T20:55:08.317Z,6.45
2019-06-20T20:57:37.145Z,6.85
2019-06-20T21:00:28.789Z,10.23
2019-06-20T21:02:57.525Z,5.72
2019-06-20T21:05:26.365Z,5.55
2019-06-20T21:07:55.128Z,9.18
2019-06-20T21:10:23.846Z,7.90
2019-06-20T21:12:52.679Z,11.05
2019-06-20T21:15:21.795Z,6.78
2019-06-20T21:17:50.542Z,5.70
2019-06-20T21:20:21.263Z,7.83
2019-06-20T21:22:50.141Z,10.95
2019-06-20T21:25:18.936Z,8.55
2019-06-20T21:27:47.887Z,7.85
2019-06-20T21:30:16.772Z,6.22
2019-06-20T21:32:45.528Z,5.58
2019-06-20T21:35:15.351Z,14.20
2019-06-20T21:37:44.102Z,9.93
2019-06-20T21:40:13.140Z,9.15
2019-06-20T21:42:41.996Z,2.22
2019-06-20T21:45:11.308Z,6.35
2019-06-20T21:47:40.138Z,10.35
2019-06-20T21:50:09.861Z,11.43
2019-06-20T21:52:39.120Z,17.45
2019-06-20T21:55:08.624Z,13.45
2019-06-20T21:57:37.510Z,10.68
2019-06-20T22:00:22.557Z,16.73
2019-06-20T22:02:51.858Z,14.00
2019-06-20T22:05:21.073Z,12.07
2019-06-20T22:07:49.992Z,13.28
2019-06-20T22:10:18.990Z,7.28
2019-06-20T22:12:47.882Z,14.55
2019-06-20T22:15:17.174Z,9.73
2019-06-20T22:17:46.013Z,5.92
2019-06-20T22:20:15.483Z,8.40
2019-06-20T22:22:44.314Z,8.78
2019-06-20T22:25:13.752Z,13.60
2019-06-20T22:27:42.708Z,11.95
2019-06-20T22:30:13.611Z,9.30
2019-06-20T22:32:42.472Z,10.13
2019-06-20T22:35:11.489Z,16.87
2019-06-20T22:37:40.327Z,6.25
2019-06-20T22:40:10.053Z,15.30
2019-06-20T22:42:38.967Z,9.38
2019-06-20T22:45:09.410Z,15.80
2019-06-20T22:47:38.348Z,14.10
2019-06-20T22:50:10.541Z,5.90
2019-06-20T22:52:40.763Z,10.08
2019-06-20T22:55:10.689Z,12.78
2019-06-20T22:57:39.616Z,8.80
2019-06-20T23:00:09.434Z,7.72
2019-06-20T23:02:38.271Z,12.23
2019-06-20T23:05:07.508Z,16.00
2019-06-20T23:07:36.376Z,6.28
2019-06-20T23:10:10.857Z,9.00
2019-06-20T23:12:41.282Z,8.05
2019-06-20T23:15:10.214Z,9.58
2019-06-20T23:17:39.118Z,11.45
2019-06-20T23:20:08.615Z,15.28
2019-06-20T23:22:37.475Z,15.03
2019-06-20T23:25:07.980Z,9.65
2019-06-20T23:27:36.850Z,20.15
2019-06-20T23:30:07.148Z,14.58
2019-06-20T23:32:36.142Z,16.50
2019-06-20T23:35:06.568Z,14.63
2019-06-20T23:37:40.073Z,10.43
2019-06-20T23:40:10.303Z,9.38
2019-06-20T23:42:39.699Z,13.20
2019-06-20T23:45:09.747Z,8.10
2019-06-20T23:47:39.680Z,14.87
2019-06-20T23:50:18.597Z,11.60
2019-06-20T23:53:01.702Z,13.98
2019-06-20T23:55:30.979Z,10.90
2019-06-20T23:57:59.817Z,13.88
